XML Sitemap

This is a XML Sitemap which is supposed to be processed by search engines which follow the XML Sitemap standard like Ask.com, Bing, Google and Yahoo.
It was generated using the Blogging-Software WordPress and the Google Sitemap Generator Plugin by Arne Brachhold.
You can find more information about XML sitemaps on sitemaps.org and Google's list of sitemap programs.

URLPriorityChange frequencyLast modified (GMT)
http://letsdiscgolf.com/2013/08/31/539/tommy-and-sue-brown-park-in-north-richland-hills-tx/20%Monthly2013-08-31 22:55
http://letsdiscgolf.com/2013/08/31/540/muldoon-park-in-pelham-nh/20%Monthly2013-08-31 22:48
http://letsdiscgolf.com/2013/08/31/126451/8312013-the-haymaker-in-haymarket-va-hole-info-updated-3/20%Monthly2013-08-31 20:38
http://letsdiscgolf.com/2013/08/31/126450/8312013-the-haymaker-in-haymarket-va-hole-info-updated-2/20%Monthly2013-08-31 20:38
http://letsdiscgolf.com/2013/08/31/532/8312013-the-haymaker-in-haymarket-va-hole-info-updated/20%Monthly2013-08-31 20:38
http://letsdiscgolf.com/2013/08/31/533/8312013-panthers-lair-potomac-middle-school-in-dumfries-va-hole-info-updated/20%Monthly2015-07-27 20:14
http://letsdiscgolf.com/2013/08/31/534/8312013-kinder-farm-park-in-millersville-md-hole-info-updated/20%Monthly2013-08-31 20:35
http://letsdiscgolf.com/2013/08/31/535/8312013-krops-crops-farm-in-great-falls-va-hole-info-updated/20%Monthly2016-11-03 04:50
http://letsdiscgolf.com/2013/08/31/527/greenwood-park-in-baker-la/20%Monthly2013-08-31 19:52
http://letsdiscgolf.com/2013/08/31/528/south-highland-sports-club-in-mayfield-ky-2/20%Monthly2013-08-31 19:10
http://letsdiscgolf.com/2013/08/31/525/8312013-superior-pines-in-grand-marais-mi-course-info-updated/20%Monthly2013-08-31 18:26
http://letsdiscgolf.com/2013/08/31/522/vallarta-ast-dgc-in-deforest-wi/20%Monthly2013-08-31 17:39
http://letsdiscgolf.com/2013/08/31/91349/vallarta-ast-dgc-in-deforest-wi-5/20%Monthly2013-08-31 17:39
http://letsdiscgolf.com/2013/08/31/91350/vallarta-ast-dgc-in-deforest-wi-6/20%Monthly2013-08-31 17:39
http://letsdiscgolf.com/2013/08/31/523/hillside-at-cmc-in-steamboat-springs-co/20%Monthly2013-08-31 17:34
http://letsdiscgolf.com/2013/08/31/519/8312013-lyndon-state-college-dgc-in-lyndonville-vt-hole-info-updated/20%Monthly2015-10-08 18:19
http://letsdiscgolf.com/2013/08/31/517/adair-park-in-adair-village-or/20%Monthly2013-08-31 15:50
http://letsdiscgolf.com/2013/08/31/518/aantiyeik-park-in-juneau-ak/20%Monthly2013-08-31 15:23
http://letsdiscgolf.com/2013/08/31/514/8312013-gavins-point-dgc-in-yankton-sd-course-info-updated/20%Monthly2016-09-26 23:40
http://letsdiscgolf.com/2013/08/31/511/trojan-park-in-rainier-or/20%Monthly2013-08-31 05:45
http://letsdiscgolf.com/2013/08/31/506/8302013-merritt-memorial-dgc-in-fall-lake-township-mn-course-info-updated/20%Monthly2013-08-31 03:44
http://letsdiscgolf.com/2013/08/31/499/westminster-dgc-in-westminster-co/20%Monthly2013-08-31 03:11
http://letsdiscgolf.com/2013/08/31/500/christie-lake-conservation-area-in-dundas-on/20%Monthly2013-08-31 03:07
http://letsdiscgolf.com/2013/08/31/501/oak-grove-hahamongna-park-in-pasadena-ca/20%Monthly2013-08-31 03:00
http://letsdiscgolf.com/2013/08/31/502/shades-mills-conservation-park-in-cambridge-on/20%Monthly2013-08-31 02:58
http://letsdiscgolf.com/2013/08/31/503/chicopee-dgc-in-kitchener-on/20%Monthly2013-08-31 02:50
http://letsdiscgolf.com/2013/08/31/504/mount-mcintyre-dgc-in-whitehorse-yt/20%Monthly2013-08-31 02:42
http://letsdiscgolf.com/2013/08/31/505/judas-creek-disc-park-in-marsh-lake-yt/20%Monthly2013-08-31 02:35
http://letsdiscgolf.com/2013/08/31/495/johnny-roberts-dgc-in-arvada-co/20%Monthly2013-08-31 01:48
http://letsdiscgolf.com/2013/08/31/496/birds-nest-disc-park-in-arvada-co/20%Monthly2013-08-31 01:39
http://letsdiscgolf.com/2013/08/31/497/newman-park-in-sweetwater-tx/20%Monthly2013-08-31 01:34
http://letsdiscgolf.com/2013/08/30/498/the-kansas-city-wide-open-third-times-a-charm/20%Monthly2013-08-30 23:38
http://letsdiscgolf.com/2013/08/30/482/8302013-pier-lon-park-dgc-in-medina-oh-new-photos-uploaded/20%Monthly2015-03-30 17:09
http://letsdiscgolf.com/2013/08/30/494/white-spruce-park-in-brampton-on/20%Monthly2013-08-30 22:38
http://letsdiscgolf.com/2013/08/30/479/centennial-park-in-toronto-etobicoke-on/20%Monthly2013-08-30 22:26
http://letsdiscgolf.com/2013/08/30/480/cedarvale-park-in-georgetown-on/20%Monthly2013-08-30 22:18
http://letsdiscgolf.com/2013/08/30/492/end-of-the-trail-classic-2013/20%Monthly2013-08-30 21:48
http://letsdiscgolf.com/2013/08/30/481/rayner-park-in-mason-mi/20%Monthly2013-08-30 21:37
http://letsdiscgolf.com/2013/08/30/485/8302013-rayner-park-in-mason-mi-new-photos-uploaded/20%Monthly2013-08-30 21:30
http://letsdiscgolf.com/2013/08/30/476/ruger-park-in-devils-lake-nd/20%Monthly2013-08-30 20:09
http://letsdiscgolf.com/2013/08/30/344/2013-national-team-challenge/20%Monthly2013-08-30 19:11
http://letsdiscgolf.com/2013/08/30/3863/2013-national-team-challenge-2/20%Monthly2013-08-30 19:11
http://letsdiscgolf.com/2013/08/30/221083/2013-national-team-challenge-3/20%Monthly2013-08-30 19:11
http://letsdiscgolf.com/2013/08/30/987/pick-of-the-week-15/20%Monthly2013-08-30 17:48
http://letsdiscgolf.com/2013/08/30/471/8302013-eaton-rapids-fields-in-eaton-rapids-mi-course-info-updated/20%Monthly2013-08-30 17:10
http://letsdiscgolf.com/2013/08/30/469/eaton-rapids-fields-in-eaton-rapids-mi/20%Monthly2013-08-30 17:09
http://letsdiscgolf.com/2013/08/30/467/22nd-st-park-dgc-in-tampa-fl/20%Monthly2013-08-30 16:44
http://letsdiscgolf.com/2013/08/30/468/renaissance-park-in-charlotte-nc/20%Monthly2013-08-30 16:39
http://letsdiscgolf.com/2013/08/30/459/8302013-ausable-chasm-dgc-in-keeseville-ny-new-file-uploaded/20%Monthly2014-09-03 13:24
http://letsdiscgolf.com/2013/08/30/464/8302013-morse-park-north-in-neosho-mo-new-tournament-added/20%Monthly2015-08-21 04:33
http://letsdiscgolf.com/2013/08/30/463/8302013-mcclelland-park-in-joplin-mo-new-tournament-added/20%Monthly2015-08-21 04:26
http://letsdiscgolf.com/2013/08/30/465/8302013-mccauley-park-in-nixa-mo-new-tournament-added/20%Monthly2013-08-30 14:32
http://letsdiscgolf.com/2013/08/30/106562/8302013-mccauley-park-in-nixa-mo-new-tournament-added-2/20%Monthly2013-08-30 14:32
http://letsdiscgolf.com/2013/08/30/457/8302013-breckenridge-dgc-in-breckenridge-tx-hole-info-updated/20%Monthly2015-07-28 22:08
http://letsdiscgolf.com/2013/08/30/456/8302013-woodbury-twp-community-park-in-woodbury-pa-course-info-updated/20%Monthly2013-08-30 12:37
http://letsdiscgolf.com/2013/08/30/454/8302013-riverfront-dgc-in-lawrence-ks-hole-info-updated/20%Monthly2013-08-30 08:56
http://letsdiscgolf.com/2013/08/30/453/8302013-north-park-in-alden-mn-hole-info-updated/20%Monthly2013-08-30 06:01
http://letsdiscgolf.com/2013/08/30/441/8292013-perryville-city-park-dgc-in-perryville-mo-new-photos-uploaded/20%Monthly2016-10-30 18:44
http://letsdiscgolf.com/2013/08/30/443/8292013-ohio-northern-university-in-ada-oh-course-info-updated/20%Monthly2017-02-10 13:11
http://letsdiscgolf.com/2013/08/30/444/8292013-pike-lake-state-park-in-bainbridge-oh-course-info-updated/20%Monthly2013-08-30 03:55
http://letsdiscgolf.com/2013/08/30/445/8292013-great-seal-state-park-in-chillicothe-oh-course-info-updated/20%Monthly2013-08-30 03:54
http://letsdiscgolf.com/2013/08/30/446/8292013-forked-run-state-park-in-reedsville-oh-course-info-updated/20%Monthly2016-11-15 15:47
http://letsdiscgolf.com/2013/08/30/447/8292013-central-michigan-university-in-mt-pleasant-mi-hole-info-updated/20%Monthly2013-08-30 03:25
http://letsdiscgolf.com/2013/08/30/439/jampb-rolling-hills-in-lamoni-ia/20%Monthly2013-08-30 03:05
http://letsdiscgolf.com/2013/08/30/440/bradford-park-in-huntersville-nc/20%Monthly2013-08-30 02:21
http://letsdiscgolf.com/2013/08/30/436/8292013-river-road-sports-complex-in-petoskey-mi-hole-info-updated/20%Monthly2013-08-30 00:17
http://letsdiscgolf.com/2013/08/29/391/8282013-druid-hill-park-in-baltimore-md-hole-info-updated/20%Monthly2016-11-15 23:20
http://letsdiscgolf.com/2013/08/29/433/south-highland-sports-club-in-mayfield-ky/20%Monthly2013-08-29 22:39
http://letsdiscgolf.com/2013/08/29/305/8282013-lincoln-park-dgc-in-tonawanda-ny-new-file-uploaded/20%Monthly2015-07-31 01:41
http://letsdiscgolf.com/2013/08/29/427/lincoln-park-dgc-in-tonawanda-ny-2/20%Monthly2013-08-29 19:22
http://letsdiscgolf.com/2013/08/29/428/pyramids-in-leicester-ma/20%Monthly2013-08-29 18:56
http://letsdiscgolf.com/2013/08/29/417/green-mountain-championships/20%Monthly2013-08-29 17:11
http://letsdiscgolf.com/2013/08/29/3865/green-mountain-championships-2/20%Monthly2013-08-29 17:11
http://letsdiscgolf.com/2013/08/29/51220/green-mountain-championships-3/20%Monthly2013-08-29 17:11
http://letsdiscgolf.com/2013/08/29/199962/green-mountain-championships-4/20%Monthly2013-08-29 17:11
http://letsdiscgolf.com/2013/08/29/199963/green-mountain-championships-5/20%Monthly2013-08-29 17:11
http://letsdiscgolf.com/2013/08/29/199964/green-mountain-championships-6/20%Monthly2013-08-29 17:11
http://letsdiscgolf.com/2013/08/29/199965/green-mountain-championships-7/20%Monthly2013-08-29 17:11
http://letsdiscgolf.com/2013/08/29/199966/green-mountain-championships-8/20%Monthly2013-08-29 17:11
http://letsdiscgolf.com/2013/08/29/225154/green-mountain-championships-6-2/20%Monthly2013-08-29 17:11
http://letsdiscgolf.com/2013/08/29/199971/green-mountain-championships-13/20%Monthly2013-08-29 17:11
http://letsdiscgolf.com/2013/08/29/199970/green-mountain-championships-12/20%Monthly2013-08-29 17:11
http://letsdiscgolf.com/2013/08/29/199969/green-mountain-championships-11/20%Monthly2013-08-29 17:11
http://letsdiscgolf.com/2013/08/29/199968/green-mountain-championships-10/20%Monthly2013-08-29 17:11
http://letsdiscgolf.com/2013/08/29/199967/green-mountain-championships-9/20%Monthly2013-08-29 17:11
http://letsdiscgolf.com/2013/08/29/419/moose-mountain-dgc-in-brookfield-nh/20%Monthly2013-08-29 16:12
http://letsdiscgolf.com/2013/08/29/423/8292013-mid-south-community-college-in-west-memphis-ar-new-file-uploaded/20%Monthly2016-12-17 16:26
http://letsdiscgolf.com/2013/08/29/424/8292013-horn-park-in-brillion-wi-course-info-updated/20%Monthly2013-08-29 14:17
http://letsdiscgolf.com/2013/08/29/414/the-edge-dgc-in-scottville-mi/20%Monthly2013-08-29 14:08
http://letsdiscgolf.com/2013/08/29/412/8292013-redbone-road-dgc-in-vicksburg-ms-photo-info-updated/20%Monthly2013-08-29 10:26
http://letsdiscgolf.com/2013/08/29/413/8292013-holmes-community-college-in-goodman-ms-hole-info-updated/20%Monthly2013-08-29 10:13
http://letsdiscgolf.com/2013/08/29/409/8292013-crosspointe-park-in-laurel-ms-course-info-updated/20%Monthly2013-08-29 09:57
http://letsdiscgolf.com/2013/08/29/407/8292013-martin-park-dgc-in-alexandria-la-hole-info-updated/20%Monthly2016-04-21 21:45
http://letsdiscgolf.com/2013/08/29/374/8282013-buck-forest-dgc-in-columbia-sc-new-photos-uploaded/20%Monthly2016-01-18 21:48
http://letsdiscgolf.com/2013/08/29/399/bill-allen-memorial-park-in-the-colony-tx/20%Monthly2013-08-29 05:14
http://letsdiscgolf.com/2013/08/29/400/greenbriar-community-center-in-fort-worth-tx/20%Monthly2013-08-29 05:06
http://letsdiscgolf.com/2013/08/29/397/8282013-fellowship-bible-church-in-brentwood-tn-photo-info-updated/20%Monthly2013-08-29 04:34
http://letsdiscgolf.com/2013/08/29/90661/8282013-fellowship-bible-church-in-brentwood-tn-photo-info-updated-2/20%Monthly2013-08-29 04:34
http://letsdiscgolf.com/2013/08/29/90662/8282013-fellowship-bible-church-in-brentwood-tn-photo-info-updated-3/20%Monthly2013-08-29 04:34
http://letsdiscgolf.com/2013/08/29/90663/8282013-fellowship-bible-church-in-brentwood-tn-photo-info-updated-4/20%Monthly2013-08-29 04:34
http://letsdiscgolf.com/2013/08/29/90664/8282013-fellowship-bible-church-in-brentwood-tn-photo-info-updated-5/20%Monthly2014-08-15 20:58
http://letsdiscgolf.com/2013/08/29/395/sugar-creek-county-park-in-gardner-wi/20%Monthly2013-08-29 03:20
http://letsdiscgolf.com/2013/08/29/389/8282013-sugar-creek-county-park-in-gardner-wi-new-photos-uploaded/20%Monthly2016-05-29 18:24
http://letsdiscgolf.com/2013/08/29/383/ludington-links-in-escanaba-mi/20%Monthly2013-08-29 02:49
http://letsdiscgolf.com/2013/08/29/393/8282013-birch-point-park-dgc-in-thunder-bay-on-new-photos-uploaded/20%Monthly2016-03-14 16:42
http://letsdiscgolf.com/2013/08/29/384/globeville-landing-in-denver-co/20%Monthly2013-08-29 02:22
http://letsdiscgolf.com/2013/08/29/382/8282013-kimberley-riverside-campground-dgc-in-kimberley-bc-course-info-updated/20%Monthly2015-11-09 20:57
http://letsdiscgolf.com/2013/08/29/385/corban-college-in-salem-or/20%Monthly2013-08-29 01:49
http://letsdiscgolf.com/2013/08/29/386/kimberley-riverside-campground-dgc-in-kimberley-bc/20%Monthly2013-08-29 01:48
http://letsdiscgolf.com/2013/08/29/387/idlewild-in-burlington-ky/20%Monthly2013-08-29 01:24
http://letsdiscgolf.com/2013/08/29/388/stroup-park-dgc-in-holdenville-ok/20%Monthly2013-08-29 01:17
http://letsdiscgolf.com/2013/08/29/241/birch-point-park-dgc-in-thunder-bay-on/20%Monthly2013-08-29 00:32
http://letsdiscgolf.com/2013/08/29/242/dotson-park-in-ithaca-ny/20%Monthly2013-08-29 00:15
http://letsdiscgolf.com/2013/08/29/243/hurricane-shoals-park-in-maysville-ga/20%Monthly2013-08-29 00:10
http://letsdiscgolf.com/2013/08/29/244/belle-sherman-in-ithaca-ny/20%Monthly2013-08-29 00:03
http://letsdiscgolf.com/2013/08/28/245/lincoln-park-dgc-in-tonawanda-ny/20%Monthly2013-08-28 23:53
http://letsdiscgolf.com/2013/08/28/246/fahrens-park-dgc-in-merced-ca/20%Monthly2013-08-28 22:33
http://letsdiscgolf.com/2013/08/28/247/orchard-hill-dgc-in-amherst-ma/20%Monthly2013-08-28 19:40
http://letsdiscgolf.com/2013/08/28/248/black-jack-dgc-in-sugar-grove-nc/20%Monthly2013-08-28 18:34
http://letsdiscgolf.com/2013/08/28/249/black-jack-dgc-in-sugar-grove-nc-2/20%Monthly2013-08-28 17:47
http://letsdiscgolf.com/2013/08/28/250/lake-sonoma-in-geyserville-ca/20%Monthly2013-08-28 15:51
http://letsdiscgolf.com/2013/08/28/251/raider-dgc-in-medford-wi/20%Monthly2013-08-28 14:39
http://letsdiscgolf.com/2013/08/28/252/spaulding-high-school-dgc-in-rochester-nh/20%Monthly2013-08-28 13:50
http://letsdiscgolf.com/2013/08/27/314/dga-headline-news-tuesday-august-27-2013/20%Monthly2013-08-27 18:51
http://letsdiscgolf.com/2013/08/27/988/in-my-bag-with-13-time-disc-golf-world-champion-ken-climo/20%Monthly2013-08-27 14:15
http://letsdiscgolf.com/2013/08/26/3867/a-fond-farewell-2/20%Monthly2013-08-26 17:01
http://letsdiscgolf.com/2013/08/26/324/a-fond-farewell/20%Monthly2013-08-26 17:01
http://letsdiscgolf.com/2013/08/26/3869/ascent-to-the-top-2/20%Monthly2013-08-26 02:19
http://letsdiscgolf.com/2013/08/26/325/ascent-to-the-top/20%Monthly2013-08-26 02:19
http://letsdiscgolf.com/2013/08/25/326/rubber-match/20%Monthly2013-08-25 02:56
http://letsdiscgolf.com/2013/08/25/3871/rubber-match-2/20%Monthly2013-08-25 02:56
http://letsdiscgolf.com/2013/08/24/3873/sole-searching-2/20%Monthly2013-08-24 01:21
http://letsdiscgolf.com/2013/08/24/327/sole-searching/20%Monthly2013-08-24 01:21
http://letsdiscgolf.com/2013/08/23/3875/the-thrill-of-maple-hill-2/20%Monthly2013-08-23 02:54
http://letsdiscgolf.com/2013/08/23/328/the-thrill-of-maple-hill/20%Monthly2013-08-23 02:54
http://letsdiscgolf.com/2013/08/21/253/interview-with-the-2013-pdga-world-champion-paul-mcbeth/20%Monthly2013-08-21 19:16
http://letsdiscgolf.com/2013/08/21/4/is-also-awesome/20%Monthly2013-08-21 00:31
http://letsdiscgolf.com/2013/08/20/315/dga-headline-news-tuesday-august-20-2013/20%Monthly2013-08-20 22:44
http://letsdiscgolf.com/2013/08/20/989/disc-golf-european-open-2013-mpo-final-round-part-33/20%Monthly2013-08-20 13:11
http://letsdiscgolf.com/2013/08/20/99224/disc-golf-european-open-2013-mpo-final-round-part-33-2/20%Monthly2013-08-20 13:11
http://letsdiscgolf.com/2013/08/20/99225/disc-golf-european-open-2013-mpo-final-round-part-33-3/20%Monthly2013-08-20 13:11
http://letsdiscgolf.com/2013/08/20/106471/enjoy-the-show-3/20%Monthly2013-08-20 00:46
http://letsdiscgolf.com/2013/08/20/3877/enjoy-the-show-2/20%Monthly2013-08-20 00:46
http://letsdiscgolf.com/2013/08/20/329/enjoy-the-show/20%Monthly2013-08-20 00:46
http://letsdiscgolf.com/2013/08/16/990/pick-of-the-week-14/20%Monthly2013-08-16 23:49
http://letsdiscgolf.com/2013/08/16/193952/who-are-you-rooting-for-3-2-5/20%Monthly2013-08-16 21:47
http://letsdiscgolf.com/2013/08/16/193953/who-are-you-rooting-for-3-2-6/20%Monthly2013-08-16 21:47
http://letsdiscgolf.com/2013/08/16/193954/who-are-you-rooting-for-3-2-7/20%Monthly2013-08-16 21:47
http://letsdiscgolf.com/2013/08/16/193955/who-are-you-rooting-for-3-2-8/20%Monthly2013-08-16 21:47
http://letsdiscgolf.com/2013/08/16/193956/who-are-you-rooting-for-3-2-9/20%Monthly2013-08-16 21:47
http://letsdiscgolf.com/2013/08/16/193951/who-are-you-rooting-for-3-2-4/20%Monthly2013-08-16 21:47
http://letsdiscgolf.com/2013/08/16/193950/who-are-you-rooting-for-3-2-3/20%Monthly2013-08-16 21:47
http://letsdiscgolf.com/2013/08/16/193949/who-are-you-rooting-for-3-2-2/20%Monthly2013-08-16 21:47
http://letsdiscgolf.com/2013/08/16/178221/who-are-you-rooting-for-3-2/20%Monthly2013-08-16 21:47
http://letsdiscgolf.com/2013/08/16/28537/who-are-you-rooting-for-3/20%Monthly2013-08-16 21:47
http://letsdiscgolf.com/2013/08/16/3879/who-are-you-rooting-for-2/20%Monthly2013-08-16 21:47
http://letsdiscgolf.com/2013/08/16/330/who-are-you-rooting-for/20%Monthly2013-08-16 21:47
http://letsdiscgolf.com/2013/08/16/193957/who-are-you-rooting-for-3-2-10/20%Monthly2013-08-16 21:47
http://letsdiscgolf.com/2013/08/16/193958/who-are-you-rooting-for-3-2-11/20%Monthly2013-08-16 21:47
http://letsdiscgolf.com/2013/08/16/194217/who-are-you-rooting-for-3-2-3-12/20%Monthly2013-08-16 21:47
http://letsdiscgolf.com/2013/08/16/194216/who-are-you-rooting-for-3-2-3-11/20%Monthly2013-08-16 21:47
http://letsdiscgolf.com/2013/08/16/194214/who-are-you-rooting-for-3-2-3-9/20%Monthly2013-08-16 21:47
http://letsdiscgolf.com/2013/08/16/194215/who-are-you-rooting-for-3-2-3-10/20%Monthly2013-08-16 21:47
http://letsdiscgolf.com/2013/08/16/194213/who-are-you-rooting-for-3-2-3-8/20%Monthly2013-08-16 21:47
http://letsdiscgolf.com/2013/08/16/194212/who-are-you-rooting-for-3-2-3-7/20%Monthly2013-08-16 21:47
http://letsdiscgolf.com/2013/08/16/194211/who-are-you-rooting-for-3-2-3-6/20%Monthly2013-08-16 21:47
http://letsdiscgolf.com/2013/08/16/194210/who-are-you-rooting-for-3-2-3-5/20%Monthly2013-08-16 21:47
http://letsdiscgolf.com/2013/08/16/194209/who-are-you-rooting-for-3-2-3-4/20%Monthly2013-08-16 21:47
http://letsdiscgolf.com/2013/08/16/194208/who-are-you-rooting-for-3-2-3-3/20%Monthly2013-08-16 21:47
http://letsdiscgolf.com/2013/08/16/194207/who-are-you-rooting-for-3-2-3-2/20%Monthly2013-08-16 21:47
http://letsdiscgolf.com/2013/08/16/193959/who-are-you-rooting-for-3-2-12/20%Monthly2013-08-16 21:47
http://letsdiscgolf.com/2013/08/15/331/logo-contest/20%Monthly2013-08-15 20:54
http://letsdiscgolf.com/2013/08/15/3881/logo-contest-2/20%Monthly2013-08-15 20:54
http://letsdiscgolf.com/2013/08/15/991/disc-golf-european-open-2013-mpo-final-round-part-23/20%Monthly2013-08-15 13:15
http://letsdiscgolf.com/2013/08/13/316/dga-headline-news-tuesday-august-13-2013/20%Monthly2013-08-13 22:09
http://letsdiscgolf.com/2013/08/13/992/disc-golf-european-open-2013-mpo-final-round-part-13/20%Monthly2013-08-13 14:21
http://letsdiscgolf.com/2013/08/12/332/lemon-lakes-picture-perfect-finish/20%Monthly2013-08-12 13:35
http://letsdiscgolf.com/2013/08/11/333/true-champions/20%Monthly2013-08-11 06:04
http://letsdiscgolf.com/2013/08/11/8326/true-champions-2/20%Monthly2013-08-11 06:04
http://letsdiscgolf.com/2013/08/11/8327/true-champions-3/20%Monthly2013-08-11 06:04
http://letsdiscgolf.com/2013/08/10/334/the-first-crowning-at-crown-point/20%Monthly2013-08-10 06:16
http://letsdiscgolf.com/2013/08/09/993/pick-of-the-week-13/20%Monthly2013-08-09 20:37
http://letsdiscgolf.com/2013/08/09/176226/2013-hall-of-fame-inductees-3/20%Monthly2013-08-09 18:18
http://letsdiscgolf.com/2013/08/09/176229/2013-hall-of-fame-inductees-6/20%Monthly2013-08-09 18:18
http://letsdiscgolf.com/2013/08/09/176228/2013-hall-of-fame-inductees-5/20%Monthly2013-08-09 18:18
http://letsdiscgolf.com/2013/08/09/176227/2013-hall-of-fame-inductees-4/20%Monthly2013-08-09 18:18
http://letsdiscgolf.com/2013/08/09/35902/2013-hall-of-fame-inductees-2/20%Monthly2013-08-09 18:18
http://letsdiscgolf.com/2013/08/09/335/2013-hall-of-fame-inductees/20%Monthly2013-08-09 18:18
http://letsdiscgolf.com/2013/08/09/176230/2013-hall-of-fame-inductees-7/20%Monthly2013-08-09 18:18
http://letsdiscgolf.com/2013/08/09/176231/2013-hall-of-fame-inductees-8/20%Monthly2013-08-09 18:18
http://letsdiscgolf.com/2013/08/09/176232/2013-hall-of-fame-inductees-9/20%Monthly2013-08-09 18:18
http://letsdiscgolf.com/2013/08/09/176233/2013-hall-of-fame-inductees-10/20%Monthly2013-08-09 18:18
http://letsdiscgolf.com/2013/08/09/176234/2013-hall-of-fame-inductees-11/20%Monthly2013-08-09 18:18
http://letsdiscgolf.com/2013/08/09/230650/2013-hall-of-fame-inductees-6-2/20%Monthly2013-08-09 18:18
http://letsdiscgolf.com/2013/08/09/176235/2013-hall-of-fame-inductees-12/20%Monthly2013-08-09 18:18
http://letsdiscgolf.com/2013/08/09/176236/2013-hall-of-fame-inductees-13/20%Monthly2013-08-09 18:18
http://letsdiscgolf.com/2013/08/09/336/when-life-gives-you-lemon-lake/20%Monthly2013-08-09 13:44
http://letsdiscgolf.com/2013/08/08/337/midweek-mayhem-in-crown-point/20%Monthly2013-08-08 04:25
http://letsdiscgolf.com/2013/08/07/994/disc-golf-gentlemens-club-challenge-2013-highlights/20%Monthly2013-08-07 05:44
http://letsdiscgolf.com/2013/08/07/338/lighting-up-lemon-lake/20%Monthly2013-08-07 03:01
http://letsdiscgolf.com/2013/08/06/317/2013-pdga-professional-disc-golf-world-championships/20%Monthly2013-08-06 17:26
http://letsdiscgolf.com/2013/08/05/191333/mixed-shindig-on-lemon-lake-blue-5/20%Monthly2013-08-05 02:29
http://letsdiscgolf.com/2013/08/05/191331/mixed-shindig-on-lemon-lake-blue-3/20%Monthly2013-08-05 02:29
http://letsdiscgolf.com/2013/08/05/191330/mixed-shindig-on-lemon-lake-blue-2/20%Monthly2013-08-05 02:29
http://letsdiscgolf.com/2013/08/05/339/mixed-shindig-on-lemon-lake-blue/20%Monthly2013-08-05 02:29
http://letsdiscgolf.com/2013/08/05/191332/mixed-shindig-on-lemon-lake-blue-4/20%Monthly2013-08-05 02:29
http://letsdiscgolf.com/2013/08/05/191334/mixed-shindig-on-lemon-lake-blue-6/20%Monthly2013-08-05 02:29
http://letsdiscgolf.com/2013/08/05/191335/mixed-shindig-on-lemon-lake-blue-7/20%Monthly2013-08-05 02:29
http://letsdiscgolf.com/2013/08/05/191336/mixed-shindig-on-lemon-lake-blue-8/20%Monthly2013-08-05 02:29
http://letsdiscgolf.com/2013/08/05/191337/mixed-shindig-on-lemon-lake-blue-9/20%Monthly2013-08-05 02:29
http://letsdiscgolf.com/2013/08/05/191338/mixed-shindig-on-lemon-lake-blue-10/20%Monthly2013-08-05 02:29
http://letsdiscgolf.com/2013/08/05/191339/mixed-shindig-on-lemon-lake-blue-11/20%Monthly2013-08-05 02:29
http://letsdiscgolf.com/2013/08/05/191340/mixed-shindig-on-lemon-lake-blue-12/20%Monthly2013-08-05 02:29
http://letsdiscgolf.com/2013/08/04/340/wiggins-nearly-sweeps-the-world/20%Monthly2013-08-04 05:10
http://letsdiscgolf.com/2013/08/02/995/pick-of-the-week-12/20%Monthly2013-08-02 16:14
http://letsdiscgolf.com/2013/08/02/341/the-worlds-best-in-crown-point/20%Monthly2013-08-02 01:17
http://letsdiscgolf.com/2013/08/02/6049/the-worlds-best-in-crown-point-2/20%Monthly2013-08-02 01:17
http://letsdiscgolf.com/2013/08/02/35889/the-worlds-best-in-crown-point-3/20%Monthly2013-08-02 01:17
http://letsdiscgolf.com/2013/08/02/35897/the-worlds-best-in-crown-point-4/20%Monthly2013-08-02 01:17
http://letsdiscgolf.com/2013/08/02/35908/the-worlds-best-in-crown-point-5/20%Monthly2013-08-02 01:17
http://letsdiscgolf.com/2013/08/02/103562/the-worlds-best-in-crown-point-5-2/20%Monthly2013-08-02 01:17
http://letsdiscgolf.com/2013/08/02/103563/the-worlds-best-in-crown-point-5-3/20%Monthly2013-08-02 01:17
http://letsdiscgolf.com/2013/08/02/123432/the-worlds-best-in-crown-point-3-2/20%Monthly2013-08-02 01:17
http://letsdiscgolf.com/2013/08/02/123433/the-worlds-best-in-crown-point-3-3/20%Monthly2013-08-02 01:17
http://letsdiscgolf.com/2013/08/01/342/the-voyage-of-captain-kirk/20%Monthly2013-08-01 16:58
http://letsdiscgolf.com/2013/08/01/184783/the-voyage-of-captain-kirk-2/20%Monthly2013-08-01 16:58
http://letsdiscgolf.com/2013/08/01/184784/the-voyage-of-captain-kirk-3/20%Monthly2013-08-01 16:58
http://letsdiscgolf.com/2013/08/01/184785/the-voyage-of-captain-kirk-4/20%Monthly2013-08-01 16:58
http://letsdiscgolf.com/2013/08/01/184786/the-voyage-of-captain-kirk-5/20%Monthly2013-08-01 16:58
http://letsdiscgolf.com/2013/08/01/184788/the-voyage-of-captain-kirk-7/20%Monthly2013-08-01 16:58
http://letsdiscgolf.com/2013/08/01/184789/the-voyage-of-captain-kirk-8/20%Monthly2013-08-01 16:58
http://letsdiscgolf.com/2013/08/01/184790/the-voyage-of-captain-kirk-9/20%Monthly2013-08-01 16:58
http://letsdiscgolf.com/2013/08/01/184791/the-voyage-of-captain-kirk-10/20%Monthly2013-08-01 16:58
http://letsdiscgolf.com/2013/08/01/184792/the-voyage-of-captain-kirk-11/20%Monthly2013-08-01 16:58
http://letsdiscgolf.com/2013/08/01/184793/the-voyage-of-captain-kirk-12/20%Monthly2013-08-01 16:58
http://letsdiscgolf.com/2013/08/01/184787/the-voyage-of-captain-kirk-6/20%Monthly2013-08-01 16:58
http://letsdiscgolf.com/2013/08/01/343/2013-pdga-election-results/20%Monthly2013-08-01 13:43
http://letsdiscgolf.com/2013/08/01/254/interview-with-2013-pdga-worlds-td-brian-cummings/20%Monthly2013-08-01 11:54